• Join FlightAware (Why Join?)
  • Login
  • US Flag 
01:41PM EDT


 

Airport Tracker/Info


-or-


 

Live Flight TrackerFlight Track Log ✈ N25CX ✈ 21-Apr-2013 ✈ 0A9 - KTTA

Flight Track Log - Related Links

Times and Time Zones

All times are in EDT time to prevent confusion due to time zone crossing. See the N25CX flight status page for this flight to view local times or setup timezone preferences in your user account.

Time Position Orientation Groundspeed Altitude Reporting Facility
EDT Latitude Longitude Course Direction KTS MPH feet Rate Location/Type
12:59PM 36.4375 -82.1189 84° East 145 167 6,500  Level Atlanta Center
01:00PM 36.4431 -82.0722 82° East 138 159 7,400 900 Climbing Atlanta Center
01:01PM 36.4483 -82.0203 83° East 144 166 8,300 900 Climbing Atlanta Center
01:02PM 36.4600 -81.9686 74° East 144 166 9,200 780 Climbing Atlanta Center
01:03PM 36.4653 -81.9142 83° East 144 166 9,900 420 Climbing Atlanta Center
01:04PM 36.4589 -81.6681 84° East  Level FlightAware Approximate
01:04PM 36.4706 -81.8469 84° East 172 198 10,100  Level Atlanta Center
01:05PM 36.4778 -81.7925 81° East 182 209 10,800 360 Climbing Atlanta Center
01:06PM 36.4828 -81.7278 84° East 182 209 10,900  Climbing Atlanta Center
01:07PM 36.4878 -81.6631 84° East 182 209 10,900  Level Atlanta Center
01:08PM 36.4928 -81.5983 84° East 187 215 10,900  Level Atlanta Center
01:09PM 36.4978 -81.5336 84° East 180 207 10,900 60 Level Atlanta Center
01:10PM 36.5006 -81.4717 87° East 180 207 11,100 420 Climbing Atlanta Center
01:11PM 36.5078 -81.4094 82° East 175 201 11,800 780 Climbing Atlanta Center
01:12PM 36.5108 -81.3550 86° East 164 189 12,700 540 Climbing Atlanta Center
01:13PM 36.5158 -81.2981 84° East 159 183 12,900 120 Climbing Atlanta Center
01:14PM 36.5203 -81.2281 85° East 179 206 13,000  Climbing Atlanta Center
01:15PM 36.5272 -81.1633 82° East 196 226 13,000  Level Atlanta Center
01:16PM 36.5319 -81.0961 85° East 196 226 13,000  Level Atlanta Center
01:17PM 36.5364 -81.0261 85° East 202 232 13,000  Level Atlanta Center
01:18PM 36.5411 -80.9611 85° East 202 232 13,100  Climbing Atlanta Center
01:19PM 36.5475 -80.8886 84° East 202 232 13,000 -60 Descending Atlanta Center
01:20PM 36.5519 -80.8161 86° East 196 226 13,000  Level Atlanta Center
01:21PM 36.5564 -80.7486 85° East 196 226 13,000  Level Atlanta Center
01:22PM 36.5628 -80.6786 83° East 196 226 13,000  Level Atlanta Center
01:23PM 36.5672 -80.6114 85° East 196 226 13,000  Level Atlanta Center
01:24PM 36.5717 -80.5439 85° East 196 226 13,000  Level Atlanta Center
01:25PM 36.5758 -80.4764 86° East 196 226 13,000  Level Atlanta Center
01:27PM 36.5853 -80.3464 85° East 198 228 13,000  Level Washington Center
01:28PM 36.5922 -80.2769 83° East 198 228 13,100  Climbing Washington Center
01:29PM 36.5969 -80.2075 85° East 198 228 13,100 -60 Level Washington Center
01:30PM 36.6017 -80.1403 85° East 198 228 13,000 -60 Descending Washington Center
01:31PM 36.6061 -80.0811 85° East 198 228 13,000  Level Washington Center
01:32PM 36.6106 -80.0117 85° East 198 228 13,000  Level Washington Center
01:33PM 36.6153 -79.9444 85° East 198 228 13,100  Climbing Washington Center
01:34PM 36.6219 -79.8750 83° East 198 228 13,000 -60 Descending Washington Center
01:35PM 36.6267 -79.8003 85° East 198 228 13,000  Level Washington Center
01:36PM 36.6289 -79.7331 88° East 198 228 13,100 -60 Climbing Washington Center
01:37PM 36.6356 -79.6636 83° East 198 228 12,900 -300 Descending Washington Center
01:38PM 36.6147 -79.6028 113° Southeast 193 222 12,500 -480 Descending Washington Center
01:39PM 36.5742 -79.5647 143° Southeast 195 224 12,000 -480 Descending Washington Center
01:40PM 36.5319 -79.5186 139° Southeast 201 231 11,600 -420 Descending Washington Center
01:41PM 36.4897 -79.4700 137° Southeast 206 237 11,200 -480 Descending Washington Center
01:42PM 36.4472 -79.4239 139° Southeast 201 231 10,700 -540 Descending Washington Center
01:43PM 36.4092 -79.3781 136° Southeast 195 224 10,200 -480 Descending Washington Center
01:44PM 36.3686 -79.3375 141° Southeast 189 217 9,800 -420 Descending Washington Center
01:45PM 36.3306 -79.2919 136° Southeast 190 219 9,400 -480 Descending Washington Center
01:46PM 36.2881 -79.2461 139° Southeast 195 224 8,900 -480 Descending Washington Center
01:47PM 36.2497 -79.2031 138° Southeast 189 217 8,500 -420 Descending Washington Center
01:47PM 36.2497 -79.2031 138° Southeast 187 215 8,500 -480 Level Washington Center
01:48PM 36.2092 -79.1650 143° Southeast 183 211 8,000 -300 Descending Washington Center
01:49PM 36.1633 -79.1606 176° South 167 192 8,000 -180 Level Washington Center
01:50PM 36.1156 -79.1531 173° South 167 192 7,700 -480 Descending Washington Center
01:51PM 36.0656 -79.1508 178° South 178 205 7,100 -540 Descending Washington Center
01:52PM 36.0136 -79.1433 173° South 178 205 6,700 -600 Descending Washington Center
01:53PM 35.9594 -79.1383 176° South 184 212 6,000 -720 Descending Washington Center